Time;durP1;ratioP1;P1;durP2;ratioP2;P2;SDS_P1;SDS_P2;PMS_P1;PMS_P2;Temp;Humidity;BMP_temperature;BMP_pressure;BME280_temperature;BME280_humidity;BME280_pressure;Samples;Min_cycle;Max_cycle;Signal;HPM_P1;HPM_P2
2022/04/15 00:03:30;;;;;;;9.00;4.40;;;23.30;50.10;;;;;;220313;1268;25307;-58
2022/04/15 00:08:35;;;;;;;10.40;5.00;;;23.20;50.40;;;;;;220566;1267;24418;-58
2022/04/15 00:13:41;;;;;;;7.60;4.40;;;23.30;49.80;;;;;;220209;1267;22533;-58
2022/04/15 00:18:44;;;;;;;8.70;4.20;;;23.30;49.90;;;;;;220740;1268;25735;-59
2022/04/15 00:23:54;;;;;;;8.10;3.90;;;23.20;49.70;;;;;;220243;1268;22853;-57
2022/04/15 00:28:58;;;;;;;8.40;4.40;;;23.20;50.00;;;;;;220812;1269;25504;-59
2022/04/15 00:34:02;;;;;;;7.20;4.10;;;23.20;49.90;;;;;;220910;1267;24061;-58
2022/04/15 00:39:06;;;;;;;6.40;3.90;;;23.20;50.20;;;;;;220644;1268;25336;-59
2022/04/15 00:44:10;;;;;;;7.00;3.60;;;23.20;49.40;;;;;;220417;1268;24321;-57
2022/04/15 00:49:14;;;;;;;6.70;3.50;;;23.20;49.80;;;;;;220936;1270;22611;-57
2022/04/15 00:54:20;;;;;;;7.30;3.70;;;23.20;49.70;;;;;;220438;1268;22837;-58
2022/04/15 00:59:25;;;;;;;6.20;3.70;;;23.20;49.90;;;;;;220488;1268;22540;-63
2022/04/15 01:04:31;;;;;;;7.70;3.90;;;23.10;50.00;;;;;;220610;1268;22594;-57
2022/04/15 01:09:42;;;;;;;5.70;3.60;;;23.20;49.80;;;;;;220303;1270;25313;-60
2022/04/15 01:14:48;;;;;;;8.10;3.90;;;23.10;50.00;;;;;;220648;1268;24004;-58
2022/04/15 01:19:51;;;;;;;6.40;3.50;;;23.00;49.90;;;;;;220787;1268;24215;-58
2022/04/15 01:24:55;;;;;;;6.50;4.00;;;23.10;50.00;;;;;;220685;1268;25495;-58
2022/04/15 01:30:00;;;;;;;6.20;3.70;;;23.00;49.80;;;;;;220743;1268;24370;-59
2022/04/15 01:35:11;;;;;;;7.00;3.30;;;23.00;50.00;;;;;;220309;1270;24096;-58
2022/04/15 01:40:29;;;;;;;8.80;4.00;;;23.10;50.10;;;;;;220689;1268;22614;-58
2022/04/15 01:45:38;;;;;;;7.60;3.50;;;23.00;50.20;;;;;;220245;1268;24368;-60
2022/04/15 01:50:46;;;;;;;5.80;3.30;;;23.00;49.90;;;;;;220513;1268;25429;-59
2022/04/15 01:55:50;;;;;;;5.70;3.10;;;23.00;50.40;;;;;;220283;1270;24411;-58
2022/04/15 02:00:54;;;;;;;5.90;3.40;;;23.00;50.30;;;;;;220577;1270;23945;-58
2022/04/15 02:05:58;;;;;;;7.30;3.60;;;23.10;50.60;;;;;;220454;1268;22847;-58
2022/04/15 02:11:02;;;;;;;6.50;3.10;;;23.10;50.40;;;;;;220271;1268;22537;-59
2022/04/15 02:16:05;;;;;;;5.40;3.00;;;23.10;50.70;;;;;;220484;1268;22529;-59
2022/04/15 02:21:09;;;;;;;6.10;3.10;;;23.10;50.80;;;;;;220846;1270;23235;-58
2022/04/15 02:26:13;;;;;;;7.00;3.20;;;23.10;51.00;;;;;;220785;1268;24244;-59
2022/04/15 02:31:17;;;;;;;6.20;3.70;;;23.10;51.20;;;;;;220643;1268;22797;-59
2022/04/15 02:36:20;;;;;;;6.40;3.20;;;23.10;51.50;;;;;;220745;1269;22728;-59
2022/04/15 02:41:24;;;;;;;4.80;3.20;;;23.10;51.70;;;;;;220255;1268;25358;-60
2022/04/15 02:46:28;;;;;;;5.20;3.80;;;23.20;52.00;;;;;;220451;1268;23052;-58
2022/04/15 02:51:33;;;;;;;4.50;3.10;;;23.20;52.20;;;;;;220457;1268;22570;-59
2022/04/15 02:56:37;;;;;;;5.80;3.40;;;23.20;52.30;;;;;;220127;1268;24085;-59
2022/04/15 03:01:42;;;;;;;6.80;3.70;;;23.20;52.80;;;;;;220725;1268;22609;-58
2022/04/15 03:06:46;;;;;;;6.10;3.80;;;23.20;52.70;;;;;;220646;1268;24215;-60
2022/04/15 03:11:50;;;;;;;4.70;3.40;;;23.20;52.80;;;;;;220739;1268;22738;-58
2022/04/15 03:16:54;;;;;;;5.50;3.50;;;23.20;52.80;;;;;;220610;1269;22792;-59
2022/04/15 03:22:01;;;;;;;6.70;3.50;;;23.20;52.90;;;;;;220452;1269;22552;-62
2022/04/15 03:27:04;;;;;;;6.50;3.70;;;23.20;53.00;;;;;;220716;1268;24218;-59
2022/04/15 03:32:08;;;;;;;7.20;3.80;;;23.20;53.30;;;;;;220505;1268;22575;-60
2022/04/15 03:37:12;;;;;;;5.70;3.70;;;23.20;53.10;;;;;;220261;1268;25323;-59
2022/04/15 03:42:16;;;;;;;5.30;3.50;;;23.20;53.00;;;;;;220268;1268;22705;-62
2022/04/15 03:47:21;;;;;;;5.10;3.20;;;23.30;52.90;;;;;;220853;1268;22563;-60
2022/04/15 03:52:27;;;;;;;5.40;3.50;;;23.20;52.80;;;;;;220791;1268;22893;-59
2022/04/15 03:57:31;;;;;;;5.50;2.90;;;23.20;52.70;;;;;;220494;1267;24319;-59
2022/04/15 04:02:35;;;;;;;4.70;3.20;;;23.20;52.70;;;;;;220428;1268;25089;-57
2022/04/15 04:07:40;;;;;;;4.90;3.20;;;23.20;52.60;;;;;;220364;1268;22534;-59
2022/04/15 04:12:45;;;;;;;4.70;2.90;;;23.10;52.50;;;;;;220546;1268;22781;-58
2022/04/15 04:17:56;;;;;;;4.00;2.90;;;23.10;52.80;;;;;;220301;1267;24276;-58
2022/04/15 04:23:00;;;;;;;5.80;3.10;;;23.10;52.50;;;;;;220259;1268;267872;-59
2022/04/15 04:28:05;;;;;;;5.10;3.50;;;23.10;52.10;;;;;;220634;1268;24278;-59
2022/04/15 04:33:09;;;;;;;4.10;2.90;;;23.00;52.50;;;;;;220637;1267;22995;-58
2022/04/15 04:38:13;;;;;;;5.60;2.80;;;23.00;52.70;;;;;;220644;1268;23056;-58
2022/04/15 04:43:16;;;;;;;4.30;2.90;;;23.00;52.40;;;;;;220716;1268;23305;-58
2022/04/15 04:48:21;;;;;;;5.80;2.80;;;23.00;52.20;;;;;;220836;1268;24287;-60
2022/04/15 04:53:25;;;;;;;5.00;2.80;;;23.00;52.30;;;;;;221038;1268;22616;-57
2022/04/15 04:58:29;;;;;;;5.40;3.20;;;23.00;52.30;;;;;;221002;1268;22646;-57
2022/04/15 05:03:32;;;;;;;4.10;2.70;;;23.00;52.30;;;;;;220621;1268;23904;-58
2022/04/15 05:08:36;;;;;;;4.30;2.60;;;23.00;52.30;;;;;;220667;1267;22544;-60
2022/04/15 05:13:40;;;;;;;4.00;2.50;;;23.00;52.10;;;;;;220546;1267;23757;-58
2022/04/15 05:18:44;;;;;;;3.90;2.30;;;23.00;52.50;;;;;;220212;1268;22819;-59
2022/04/15 05:23:48;;;;;;;4.60;2.40;;;22.90;51.90;;;;;;220578;1267;22547;-58
2022/04/15 05:28:51;;;;;;;5.50;2.50;;;22.90;51.90;;;;;;220601;1268;23934;-58
2022/04/15 05:33:55;;;;;;;3.60;2.50;;;22.90;52.40;;;;;;220565;1267;26699;-58
2022/04/15 05:38:59;;;;;;;4.00;2.80;;;22.90;52.30;;;;;;220907;1268;24424;-59
2022/04/15 05:44:08;;;;;;;5.60;2.50;;;22.90;52.80;;;;;;220461;1267;22604;-57
2022/04/15 05:49:16;;;;;;;5.10;2.60;;;23.00;53.20;;;;;;220598;1267;22586;-56
2022/04/15 05:54:22;;;;;;;6.40;2.50;;;23.00;53.30;;;;;;220436;1267;22672;-56
2022/04/15 05:59:26;;;;;;;4.90;2.40;;;23.00;53.90;;;;;;220539;1268;22547;-56
2022/04/15 06:04:33;;;;;;;6.10;2.40;;;23.00;54.10;;;;;;220214;1267;22551;-58
2022/04/15 06:09:38;;;;;;;9.50;2.50;;;23.00;54.10;;;;;;220667;1267;25386;-57
2022/04/15 06:14:46;;;;;;;8.10;2.60;;;23.00;54.50;;;;;;220639;1267;24398;-59
2022/04/15 06:19:50;;;;;;;9.20;2.70;;;23.00;54.10;;;;;;220700;1267;24340;-60
2022/04/15 06:24:54;;;;;;;14.40;3.10;;;23.00;54.40;;;;;;220517;1267;25528;-58
2022/04/15 06:29:57;;;;;;;9.70;3.00;;;23.10;54.50;;;;;;220418;1268;22730;-58
2022/04/15 06:35:02;;;;;;;8.60;2.20;;;23.00;54.30;;;;;;220753;1267;22794;-53
2022/04/15 06:40:06;;;;;;;8.70;2.90;;;23.00;54.40;;;;;;220740;1268;23987;-55
2022/04/15 06:45:12;;;;;;;11.90;2.60;;;23.00;54.50;;;;;;220337;1267;25294;-65
2022/04/15 06:50:16;;;;;;;5.90;2.40;;;23.00;54.20;;;;;;220717;1267;24272;-65
2022/04/15 06:55:20;;;;;;;8.90;3.40;;;23.00;54.10;;;;;;220680;1267;24208;-65
2022/04/15 07:00:23;;;;;;;12.40;2.70;;;23.00;54.70;;;;;;220711;1267;25438;-66
2022/04/15 07:05:27;;;;;;;5.00;2.10;;;23.00;54.60;;;;;;220616;1267;26624;-65
2022/04/15 07:10:31;;;;;;;8.10;2.20;;;23.10;54.20;;;;;;220504;1267;26740;-65
2022/04/15 07:15:35;;;;;;;9.60;2.50;;;23.00;54.20;;;;;;220515;1268;22559;-65
2022/04/15 07:20:43;;;;;;;6.70;2.40;;;23.00;54.10;;;;;;220640;1267;24305;-66
2022/04/15 07:25:47;;;;;;;11.00;2.30;;;23.00;54.10;;;;;;220338;1267;25221;-67
2022/04/15 07:30:51;;;;;;;8.60;2.50;;;23.00;54.50;;;;;;220416;1268;26783;-66
2022/04/15 07:35:56;;;;;;;10.90;3.30;;;23.00;54.40;;;;;;220340;1268;22631;-69
2022/04/15 07:41:05;;;;;;;8.40;3.00;;;23.00;54.20;;;;;;220511;1268;22612;-66
2022/04/15 07:46:09;;;;;;;10.60;3.10;;;23.00;54.10;;;;;;220766;1267;22578;-66
2022/04/15 07:51:13;;;;;;;7.20;3.10;;;23.00;54.10;;;;;;220723;1268;25486;-71
2022/04/15 07:56:16;;;;;;;9.80;3.20;;;23.00;54.10;;;;;;220607;1268;23480;-65
2022/04/15 08:01:21;;;;;;;10.30;3.60;;;23.00;54.10;;;;;;220851;1267;22737;-65
2022/04/15 08:06:28;;;;;;;9.10;4.00;;;23.00;54.30;;;;;;220637;1267;24268;-68
2022/04/15 08:11:32;;;;;;;10.00;4.10;;;23.10;54.90;;;;;;220551;1268;24663;-65
2022/04/15 08:16:36;;;;;;;8.40;3.90;;;23.20;55.70;;;;;;220704;1267;25253;-63
2022/04/15 08:21:47;;;;;;;11.50;3.80;;;23.30;54.90;;;;;;220664;1268;22540;-66
2022/04/15 08:26:57;;;;;;;9.00;4.40;;;23.40;54.40;;;;;;220635;1267;22664;-64
2022/04/15 08:32:01;;;;;;;7.20;3.80;;;23.40;54.30;;;;;;220882;1267;24422;-63
2022/04/15 08:37:05;;;;;;;12.20;4.50;;;23.40;54.10;;;;;;220802;1267;22726;-64
2022/04/15 08:42:09;;;;;;;9.40;4.60;;;23.40;54.70;;;;;;220718;1267;22528;-67
2022/04/15 08:47:13;;;;;;;10.20;4.40;;;23.30;54.40;;;;;;220979;1268;22606;-70
2022/04/15 08:52:18;;;;;;;10.90;4.70;;;23.20;54.70;;;;;;220904;1267;24222;-70
2022/04/15 08:57:22;;;;;;;10.10;4.30;;;23.20;55.40;;;;;;220940;1267;22554;-69
2022/04/15 09:02:35;;;;;;;7.90;4.20;;;23.20;55.40;;;;;;220626;1267;22531;-68
2022/04/15 09:07:45;;;;;;;10.10;4.30;;;23.20;55.80;;;;;;220690;1267;25282;-67
2022/04/15 09:12:52;;;;;;;9.70;4.60;;;23.10;56.30;;;;;;220864;1267;22701;-69
2022/04/15 09:18:00;;;;;;;13.10;5.00;;;23.10;56.60;;;;;;220773;1267;24405;-68
2022/04/15 09:23:10;;;;;;;10.60;4.60;;;23.10;56.90;;;;;;220810;1267;22602;-71
2022/04/15 09:28:13;;;;;;;11.20;4.80;;;23.10;59.20;;;;;;220547;1267;22722;-69
2022/04/15 09:33:19;;;;;;;9.70;5.10;;;23.10;59.60;;;;;;220391;1267;22548;-67
2022/04/15 09:38:44;;;;;;;8.80;5.00;;;23.10;59.20;;;;;;220622;1268;24186;-70
2022/04/15 09:43:53;;;;;;;10.20;4.60;;;23.10;59.80;;;;;;220652;1267;25377;-69
2022/04/15 09:49:02;;;;;;;10.50;4.80;;;23.00;59.40;;;;;;220753;1268;23829;-68
2022/04/15 09:54:09;;;;;;;11.40;4.70;;;23.00;59.70;;;;;;220678;1267;24425;-70
2022/04/15 09:59:15;;;;;;;9.70;4.80;;;23.00;59.60;;;;;;220678;1267;25343;-69
2022/04/15 10:04:20;;;;;;;10.40;4.90;;;23.00;59.70;;;;;;220885;1267;24367;-68
2022/04/15 10:09:24;;;;;;;9.80;4.50;;;23.00;60.10;;;;;;220990;1267;22681;-69
2022/04/15 10:14:28;;;;;;;10.30;4.60;;;22.90;60.00;;;;;;220903;1267;25466;-69
2022/04/15 10:19:34;;;;;;;11.60;4.60;;;22.90;60.20;;;;;;221063;1267;22543;-68
2022/04/15 10:24:37;;;;;;;9.60;4.80;;;22.90;60.20;;;;;;220721;1267;22863;-69
2022/04/15 10:29:46;;;;;;;10.40;4.60;;;22.90;59.40;;;;;;220852;1267;25233;-69
2022/04/15 10:34:50;;;;;;;9.30;4.30;;;22.90;60.10;;;;;;220589;1267;25686;-66
2022/04/15 10:39:57;;;;;;;10.00;5.00;;;22.90;60.20;;;;;;220697;1267;25105;-68
2022/04/15 10:45:00;;;;;;;8.00;4.30;;;22.90;60.00;;;;;;220909;1267;22813;-68
2022/04/15 10:50:06;;;;;;;9.40;4.40;;;22.90;60.40;;;;;;220431;1267;22652;-67
2022/04/15 10:55:13;;;;;;;8.80;4.30;;;22.80;60.50;;;;;;220864;1267;24285;-67
2022/04/15 11:05:44;;;;;;;8.60;4.60;;;22.80;60.70;;;;;;220359;1268;22767;-67
2022/04/15 11:11:02;;;;;;;7.30;4.30;;;22.80;60.80;;;;;;220707;1268;22594;-68
2022/04/15 11:16:27;;;;;;;7.20;4.10;;;22.80;60.80;;;;;;220744;1266;22546;-67
2022/04/15 11:21:35;;;;;;;9.00;4.10;;;22.90;60.50;;;;;;220613;1266;22615;-68
2022/04/15 11:26:42;;;;;;;7.70;4.20;;;22.90;60.80;;;;;;220873;1267;22528;-68
2022/04/15 11:31:46;;;;;;;9.10;4.20;;;22.80;60.90;;;;;;220800;1267;25588;-68
2022/04/15 11:36:53;;;;;;;7.30;4.00;;;22.80;60.80;;;;;;220712;1267;22548;-67
2022/04/15 11:41:57;;;;;;;6.80;3.80;;;22.90;60.70;;;;;;220787;1267;22812;-65
2022/04/15 11:47:23;;;;;;;8.00;3.70;;;22.90;60.90;;;;;;220471;1267;22609;-69
2022/04/15 11:52:28;;;;;;;8.50;3.90;;;22.90;60.90;;;;;;220379;1267;26684;-68
2022/04/15 11:57:33;;;;;;;7.40;3.30;;;22.90;60.40;;;;;;220469;1268;22622;-69
2022/04/15 12:02:42;;;;;;;8.90;4.10;;;22.90;60.70;;;;;;220543;1267;22639;-67
2022/04/15 12:07:49;;;;;;;7.40;3.90;;;22.90;60.90;;;;;;220355;1267;23081;-70
2022/04/15 12:12:58;;;;;;;;;;;22.80;60.70;;;;;;220476;1267;25292;-69
2022/04/15 12:18:05;;;;;;;6.10;3.50;;;22.80;60.20;;;;;;220781;1267;22550;-73
2022/04/15 12:23:14;;;;;;;5.90;3.40;;;22.80;60.60;;;;;;220589;1267;25115;-68
2022/04/15 12:33:47;;;;;;;7.00;3.30;;;22.80;61.80;;;;;;220859;1267;25359;-68
2022/04/15 12:39:03;;;;;;;10.80;3.70;;;22.80;63.20;;;;;;220662;1267;24418;-70
2022/04/15 12:44:15;;;;;;;6.10;3.40;;;22.80;62.70;;;;;;220803;1266;24708;-69
2022/04/15 12:49:23;;;;;;;7.20;3.40;;;22.70;62.50;;;;;;220679;1267;22535;-69
2022/04/15 12:54:27;;;;;;;6.40;3.20;;;22.70;62.20;;;;;;220768;1267;22535;-68
2022/04/15 12:59:30;;;;;;;5.80;3.20;;;22.80;63.60;;;;;;220479;1267;22643;-68
2022/04/15 13:04:35;;;;;;;4.80;2.90;;;22.80;62.80;;;;;;220885;1268;24404;-68
2022/04/15 13:09:39;;;;;;;7.00;3.40;;;22.70;63.50;;;;;;220438;1267;22731;-67
2022/04/15 13:14:47;;;;;;;5.20;3.30;;;22.70;63.60;;;;;;220777;1267;24418;-66
2022/04/15 13:19:50;;;;;;;7.40;3.20;;;22.70;63.50;;;;;;220625;1267;22521;-68
2022/04/15 13:24:56;;;;;;;6.60;3.30;;;22.70;63.80;;;;;;220686;1267;22534;-70
2022/04/15 13:30:00;;;;;;;6.90;3.40;;;22.60;63.60;;;;;;221045;1268;22695;-68
2022/04/15 13:35:04;;;;;;;5.00;3.10;;;22.60;63.90;;;;;;220768;1267;22653;-66
2022/04/15 13:40:08;;;;;;;6.70;3.20;;;22.60;63.60;;;;;;220628;1267;25411;-68
2022/04/15 13:45:13;;;;;;;6.20;3.10;;;22.60;64.30;;;;;;220718;1267;25438;-67
2022/04/15 13:50:17;;;;;;;5.30;3.10;;;22.60;64.40;;;;;;220683;1267;23894;-69
2022/04/15 14:00:45;;;;;;;7.20;3.00;;;22.60;63.90;;;;;;220749;1267;22569;-65
2022/04/15 14:05:48;;;;;;;4.50;2.80;;;22.50;63.80;;;;;;220833;1267;25190;-67
2022/04/15 14:10:54;;;;;;;6.40;3.10;;;22.50;64.00;;;;;;220736;1267;22560;-68
2022/04/15 14:16:12;;;;;;;4.60;3.00;;;22.50;63.90;;;;;;220575;1267;22544;-66
2022/04/15 14:21:16;;;;;;;5.10;2.90;;;22.50;64.00;;;;;;220545;1267;25605;-68
2022/04/15 14:26:20;;;;;;;4.60;2.90;;;22.60;64.30;;;;;;220881;1267;23084;-66
2022/04/15 14:31:26;;;;;;;4.60;2.90;;;22.60;63.80;;;;;;220825;1267;22842;-69
2022/04/15 14:36:32;;;;;;;5.40;3.10;;;22.60;63.70;;;;;;220590;1267;22977;-68
2022/04/15 14:41:39;;;;;;;4.90;3.10;;;22.60;63.90;;;;;;220572;1266;24420;-68
2022/04/15 14:46:42;;;;;;;5.00;2.80;;;22.60;63.50;;;;;;220964;1266;22634;-69
2022/04/15 14:51:46;;;;;;;4.30;3.00;;;22.50;63.70;;;;;;220635;1267;22642;-67
2022/04/15 14:56:54;;;;;;;6.10;3.10;;;22.50;63.60;;;;;;220778;1267;24338;-66
2022/04/15 15:01:58;;;;;;;3.80;2.60;;;22.50;63.60;;;;;;220743;1267;22608;-71
2022/04/15 15:07:02;;;;;;;9.50;2.90;;;22.50;63.50;;;;;;220526;1267;22577;-71
2022/04/15 15:12:12;;;;;;;5.20;2.40;;;22.50;63.50;;;;;;220572;1267;25727;-67
2022/04/15 15:17:34;;;;;;;4.90;2.60;;;22.50;63.10;;;;;;220761;1267;22577;-65
2022/04/15 15:22:38;;;;;;;4.70;2.40;;;22.50;63.10;;;;;;220314;1267;22549;-57
2022/04/15 15:33:07;;;;;;;4.80;2.40;;;22.50;62.60;;;;;;219828;1270;26489;-61
2022/04/15 15:38:11;;;;;;;7.70;3.20;;;22.50;62.30;;;;;;220311;1267;22557;-60
2022/04/15 15:43:17;;;;;;;9.50;2.40;;;22.50;61.20;;;;;;220421;1267;22557;-60
2022/04/15 15:48:24;;;;;;;3.80;2.10;;;22.50;60.80;;;;;;220490;1267;22519;-59
2022/04/15 15:53:33;;;;;;;8.00;2.80;;;22.40;60.80;;;;;;220415;1267;22760;-57
2022/04/15 15:58:47;;;;;;;6.40;2.40;;;22.50;61.90;;;;;;220191;1268;25248;-60
2022/04/15 16:03:51;;;;;;;5.90;2.50;;;22.80;62.80;;;;;;220111;1270;22572;-58
2022/04/15 16:08:57;;;;;;;5.20;2.70;;;23.10;62.60;;;;;;220340;1267;24422;-58
2022/04/15 16:14:05;;;;;;;4.90;2.10;;;23.30;61.30;;;;;;220742;1267;25081;-63
2022/04/15 16:19:16;;;;;;;4.80;2.30;;;23.50;61.10;;;;;;220220;1267;22620;-61
2022/04/15 16:24:21;;;;;;;4.50;2.20;;;23.60;60.60;;;;;;217534;1266;3355984;-59
2022/04/15 16:29:26;;;;;;;2.70;1.70;;;23.70;59.90;;;;;;226685;1267;22555;-58
2022/04/15 16:34:43;;;;;;;3.80;1.90;;;23.60;60.10;;;;;;227969;1267;23730;-58
2022/04/15 16:39:47;;;;;;;3.70;2.40;;;23.60;60.00;;;;;;227958;1268;22197;-59
2022/04/15 16:44:52;;;;;;;5.80;2.60;;;23.60;60.00;;;;;;227963;1267;23188;-59
2022/04/15 16:50:16;;;;;;;3.50;2.00;;;23.60;59.90;;;;;;227861;1266;23215;-58
2022/04/15 17:01:01;;;;;;;3.30;2.20;;;23.60;59.50;;;;;;227872;1267;22378;-57
2022/04/15 17:06:56;;;;;;;3.40;2.00;;;23.50;59.50;;;;;;227795;1268;22387;-56
2022/04/15 17:12:20;;;;;;;4.30;2.00;;;23.50;59.40;;;;;;227781;1267;22403;-58
2022/04/15 17:18:10;;;;;;;9.10;2.40;;;23.40;60.00;;;;;;220185;1267;22888;-59
2022/04/15 17:24:05;;;;;;;3.40;2.10;;;23.30;59.30;;;;;;219997;1270;24297;-58
2022/04/15 17:29:45;;;;;;;4.50;2.00;;;23.20;60.60;;;;;;220293;1267;24046;-60
2022/04/15 17:35:02;;;;;;;3.90;1.90;;;23.20;60.20;;;;;;219952;1267;22551;-59
2022/04/15 17:40:23;;;;;;;5.40;2.00;;;23.20;60.20;;;;;;220014;1268;22549;-60
2022/04/15 17:45:48;;;;;;;4.20;1.90;;;23.10;60.50;;;;;;220287;1267;22533;-59
2022/04/15 17:51:19;;;;;;;6.20;2.50;;;23.10;60.10;;;;;;220076;1267;22610;-59
2022/04/15 17:56:33;;;;;;;4.10;2.20;;;23.00;59.30;;;;;;219843;1267;22519;-60
2022/04/15 18:01:47;;;;;;;2.90;2.00;;;23.00;60.00;;;;;;219921;1267;22550;-60
2022/04/15 18:07:19;;;;;;;8.90;2.30;;;23.00;58.90;;;;;;220404;1267;22536;-60
2022/04/15 18:12:43;;;;;;;7.60;2.20;;;23.00;59.00;;;;;;220595;1267;26497;-59
2022/04/15 18:18:10;;;;;;;8.40;1.80;;;22.90;58.70;;;;;;220412;1267;22586;-56
2022/04/15 18:23:36;;;;;;;;;;;22.90;59.40;;;;;;219914;1267;25143;-60
2022/04/15 18:29:13;;;;;;;7.40;2.10;;;22.90;59.00;;;;;;220437;1269;22774;-59
2022/04/15 18:34:29;;;;;;;5.50;2.50;;;22.90;59.00;;;;;;220152;1267;22549;-61
2022/04/15 18:40:07;;;;;;;2.90;1.60;;;22.90;59.30;;;;;;220623;1269;24409;-64
2022/04/15 18:45:43;;;;;;;4.50;1.70;;;22.90;60.00;;;;;;220257;1270;22729;-61
2022/04/15 18:57:02;;;;;;;8.60;2.10;;;22.90;59.80;;;;;;220596;1268;24439;-61
2022/04/15 19:02:23;;;;;;;5.60;1.80;;;22.90;59.30;;;;;;220257;1268;24294;-62
2022/04/15 19:07:51;;;;;;;4.30;1.90;;;22.90;59.10;;;;;;220526;1267;22544;-63
2022/04/15 19:13:06;;;;;;;7.40;2.20;;;22.90;59.00;;;;;;220594;1267;22598;-62
2022/04/15 19:18:25;;;;;;;9.90;1.90;;;22.90;58.80;;;;;;220477;1267;25622;-61
2022/04/15 19:24:07;;;;;;;9.80;2.20;;;22.90;58.90;;;;;;220581;1267;24427;-62
2022/04/15 19:29:20;;;;;;;12.60;2.50;;;22.80;58.70;;;;;;220378;1268;22525;-64
2022/04/15 19:34:34;;;;;;;7.00;2.80;;;22.80;59.20;;;;;;220655;1268;23599;-59
2022/04/15 19:40:03;;;;;;;14.80;2.60;;;22.80;59.20;;;;;;220697;1270;22687;-58
2022/04/15 19:46:05;;;;;;;14.50;2.90;;;22.70;59.10;;;;;;220212;1267;25202;-54
2022/04/15 19:51:33;;;;;;;19.50;3.80;;;22.60;59.40;;;;;;220900;1268;22646;-61
2022/04/15 20:03:13;;;;;;;;;;;;;;;;;;;;;
2022/04/15 20:08:49;;;;;;;7.90;2.50;;;22.70;60.30;;;;;;220719;1268;24306;-60
2022/04/15 20:14:52;;;;;;;;;;;;;;;;;;;;;
2022/04/15 20:20:27;;;;;;;8.80;2.80;;;22.70;60.60;;;;;;220491;1267;22620;-63
2022/04/15 20:26:03;;;;;;;14.50;2.80;;;22.70;60.50;;;;;;220797;1268;22557;-59
2022/04/15 20:31:16;;;;;;;5.70;2.20;;;22.80;60.60;;;;;;220774;1268;24268;-68
2022/04/15 20:36:54;;;;;;;7.30;2.50;;;22.70;60.40;;;;;;220645;1270;22593;-66
2022/04/15 20:42:19;;;;;;;7.20;2.20;;;22.70;60.20;;;;;;220576;1268;22562;-61
2022/04/15 20:47:35;;;;;;;6.10;2.60;;;22.70;60.10;;;;;;220107;1268;25539;-61
2022/04/15 20:52:47;;;;;;;7.70;2.60;;;22.70;60.40;;;;;;220635;1269;24245;-62
2022/04/15 20:58:08;;;;;;;6.80;2.30;;;22.70;60.70;;;;;;220844;1270;22655;-62
2022/04/15 21:03:25;;;;;;;8.00;2.70;;;22.70;60.10;;;;;;220541;1268;23200;-64
2022/04/15 21:08:33;;;;;;;7.70;2.60;;;22.60;60.40;;;;;;220624;1268;22559;-64
2022/04/15 21:14:01;;;;;;;7.90;2.50;;;22.50;60.30;;;;;;220493;1268;22682;-62
2022/04/15 21:19:30;;;;;;;9.00;2.40;;;22.50;59.80;;;;;;220662;1268;24203;-62
2022/04/15 21:25:12;;;;;;;8.10;2.30;;;22.50;60.20;;;;;;220473;1269;24293;-63
2022/04/15 21:30:56;;;;;;;5.60;2.60;;;22.40;60.10;;;;;;220463;1268;22684;-63
2022/04/15 21:36:39;;;;;;;11.50;2.70;;;22.40;60.00;;;;;;220843;1265;24487;-65
2022/04/15 21:42:06;;;;;;;6.00;2.00;;;22.40;60.40;;;;;;220907;1265;22701;-64
2022/04/15 21:47:43;;;;;;;5.40;2.20;;;22.40;61.10;;;;;;220696;1268;24309;-65
2022/04/15 21:53:09;;;;;;;5.50;2.20;;;22.40;61.20;;;;;;220373;1268;25544;-64
2022/04/15 21:58:23;;;;;;;5.90;2.20;;;22.40;61.20;;;;;;220433;1268;25302;-64
2022/04/15 22:03:35;;;;;;;7.50;2.30;;;22.40;61.20;;;;;;220394;1268;22620;-64
2022/04/15 22:08:39;;;;;;;7.00;2.30;;;22.30;61.20;;;;;;220190;1268;22571;-62
2022/04/15 22:13:44;;;;;;;5.60;2.50;;;22.30;60.90;;;;;;220256;1268;25494;-63
2022/04/15 22:18:48;;;;;;;8.00;2.20;;;22.40;60.80;;;;;;220567;1268;22543;-63
2022/04/15 22:23:52;;;;;;;5.70;2.40;;;22.30;60.70;;;;;;220567;1268;23081;-56
2022/04/15 22:28:58;;;;;;;5.50;2.40;;;22.30;60.60;;;;;;220562;1268;25518;-63
2022/04/15 22:34:07;;;;;;;5.70;2.20;;;22.20;60.10;;;;;;220404;1268;24221;-62
2022/04/15 22:39:16;;;;;;;13.30;2.30;;;22.40;60.70;;;;;;220079;1267;22694;-63
2022/04/15 22:44:25;;;;;;;4.60;2.30;;;22.50;60.30;;;;;;220442;1268;24220;-63
2022/04/15 22:49:30;;;;;;;7.50;2.70;;;22.80;59.70;;;;;;220380;1268;24532;-59
2022/04/15 23:00:00;;;;;;;8.10;2.90;;;23.20;58.90;;;;;;220247;1268;23010;-63
2022/04/15 23:05:07;;;;;;;6.10;1.80;;;23.30;58.50;;;;;;220337;1267;22603;-64
2022/04/15 23:10:13;;;;;;;5.20;2.80;;;23.40;58.10;;;;;;220489;1267;23002;-60
2022/04/15 23:15:17;;;;;;;7.70;2.90;;;23.50;57.30;;;;;;220470;1267;22699;-65
2022/04/15 23:20:22;;;;;;;5.80;2.90;;;23.50;56.90;;;;;;220676;1268;24196;-64
2022/04/15 23:25:31;;;;;;;6.30;2.30;;;23.60;56.40;;;;;;220479;1268;25293;-64
2022/04/15 23:30:36;;;;;;;5.50;2.40;;;23.70;56.30;;;;;;220643;1268;22577;-64
2022/04/15 23:35:40;;;;;;;3.80;2.10;;;23.70;56.20;;;;;;220454;1267;25582;-61
2022/04/15 23:40:44;;;;;;;7.10;2.70;;;23.70;56.50;;;;;;220123;1268;24284;-64
2022/04/15 23:51:11;;;;;;;4.20;2.20;;;23.60;56.10;;;;;;220380;1267;23905;-64
2022/04/15 23:56:15;;;;;;;4.60;2.40;;;23.60;56.50;;;;;;220338;1268;22570;-60
